Portada
METAR-TAF:

METAR-TAF

Aeroports :

Kobe, Japó

latitud: 34-37-58N, longitud: 135-13-26E, altitud: 7 m

Observació

L'informe es va fer fa 24 minuts, a les 08:00 UTC
Vent 11 kt del Oest/Sud-Oest
Temperatura 21°C
Humitat 94%
Pressió 1010 hPa
Visibilitat: 4000 m
Escasses núvols a una alçada de 400 ft
Núvols disperses a una alçada de 3000 ft
Cel ennuvolat a una alçada de 4500 ft
xàfecs de pluja, boirina

METAR: RJBE 290800Z 25011KT 4000 SHRA BR FEW004 SCT030 BKN045 21/20 Q1010

Hora: 17:24 (08:24 UTC)


TAF: manca

Observacions i pronòstics meteorològics de més de 4000 aeroports (METAR i TAF).

Les estacions disponibles són els punts grocs i vermells al mapa.

Posi el ratolí al punt desitjat per veure el nom de l'estació.

Feu clic per veure les observacions i els pronòstics meteorològics.

Per canviar el mapa: feu clic els botons verds amb una creu de color negre per apropar; al botó verd amb un guió per allunyar la imatge; o en les fletxes verdes per a mapes adjacents.


METAR-TAF: